createdAt,value
2018-05-06T00:00:26.443Z,10.40
2018-05-06T00:02:54.764Z,11.90
2018-05-06T00:05:23.097Z,9.70
2018-05-06T00:07:51.508Z,8.83
2018-05-06T00:10:19.841Z,10.00
2018-05-06T00:12:48.215Z,8.97
2018-05-06T00:15:16.612Z,12.13
2018-05-06T00:17:44.924Z,8.10
2018-05-06T00:20:13.315Z,11.73
2018-05-06T00:22:41.613Z,8.17
2018-05-06T00:25:09.925Z,8.60
2018-05-06T00:27:38.410Z,8.50
2018-05-06T00:30:06.834Z,8.50
2018-05-06T00:32:35.130Z,9.67
2018-05-06T00:35:03.543Z,8.30
2018-05-06T00:37:31.964Z,10.10
2018-05-06T00:40:00.290Z,10.70
2018-05-06T00:42:28.605Z,8.33
2018-05-06T00:44:56.983Z,7.83
2018-05-06T00:47:25.374Z,10.23
2018-05-06T00:49:53.767Z,6.73
2018-05-06T00:52:22.181Z,11.13
2018-05-06T00:54:50.503Z,11.50
2018-05-06T00:57:18.860Z,11.13
2018-05-06T00:59:47.225Z,11.23
2018-05-06T01:02:15.619Z,8.00
2018-05-06T01:04:43.941Z,10.03
2018-05-06T01:07:12.248Z,11.87
2018-05-06T01:09:40.601Z,9.23
2018-05-06T01:12:08.958Z,11.40
2018-05-06T01:14:37.262Z,12.40
2018-05-06T01:17:05.604Z,13.13
2018-05-06T01:19:33.967Z,10.37
2018-05-06T01:22:02.369Z,11.37
2018-05-06T01:24:30.702Z,10.07
2018-05-06T01:26:59.141Z,9.53
2018-05-06T01:29:27.461Z,8.73
2018-05-06T01:31:55.777Z,8.80
2018-05-06T01:34:24.112Z,10.93
2018-05-06T01:36:52.501Z,9.70
2018-05-06T01:39:21.387Z,11.13
2018-05-06T01:41:49.705Z,8.30
2018-05-06T01:44:18.148Z,10.13
2018-05-06T01:46:46.491Z,11.47
2018-05-06T01:49:14.809Z,9.23
2018-05-06T01:51:43.142Z,8.37
2018-05-06T01:54:11.452Z,8.43
2018-05-06T01:56:39.853Z,8.83
2018-05-06T01:59:08.181Z,11.80
2018-05-06T02:01:36.501Z,7.60
2018-05-06T02:04:04.928Z,9.10
2018-05-06T02:06:33.763Z,9.87
2018-05-06T02:09:02.073Z,8.73
2018-05-06T02:11:30.401Z,8.60
2018-05-06T02:13:58.739Z,12.23
2018-05-06T02:16:27.047Z,8.87
2018-05-06T02:18:55.371Z,11.03
2018-05-06T02:21:23.766Z,8.90
2018-05-06T02:23:52.169Z,8.90
2018-05-06T02:26:20.535Z,8.83
2018-05-06T02:28:48.834Z,10.67
2018-05-06T02:31:17.153Z,8.73
2018-05-06T02:33:45.470Z,9.67
2018-05-06T02:36:13.790Z,9.70
2018-05-06T02:38:42.276Z,14.37
2018-05-06T02:41:10.618Z,11.33
2018-05-06T02:43:38.935Z,9.20
2018-05-06T02:46:07.361Z,10.27
2018-05-06T02:48:35.666Z,11.10
2018-05-06T02:51:04.006Z,15.87
2018-05-06T02:53:32.324Z,10.90
2018-05-06T02:56:00.653Z,12.83
2018-05-06T02:58:29.044Z,9.83
2018-05-06T03:00:57.437Z,17.53
2018-05-06T03:03:25.889Z,9.97
2018-05-06T03:05:54.242Z,11.43
2018-05-06T03:08:22.651Z,12.37
2018-05-06T03:10:50.982Z,12.90
2018-05-06T03:13:19.300Z,9.87
2018-05-06T03:15:47.703Z,11.53
2018-05-06T03:18:16.017Z,9.03
2018-05-06T03:20:44.399Z,11.17
2018-05-06T03:23:12.784Z,14.63
2018-05-06T03:25:41.155Z,9.63
2018-05-06T03:28:09.561Z,13.50
2018-05-06T03:30:37.959Z,12.00
2018-05-06T03:33:06.325Z,13.03
2018-05-06T03:35:34.639Z,8.90
2018-05-06T03:38:02.964Z,12.03
2018-05-06T03:40:31.393Z,10.30
2018-05-06T03:43:00.570Z,11.53
2018-05-06T03:45:28.904Z,9.87
2018-05-06T03:47:57.259Z,12.73
2018-05-06T03:50:25.605Z,11.57
2018-05-06T03:52:53.955Z,10.00
2018-05-06T03:55:22.296Z,8.83
2018-05-06T03:58:02.879Z,12.10
2018-05-06T04:00:45.077Z,9.70
2018-05-06T04:03:13.462Z,9.83
2018-05-06T04:05:41.823Z,8.67
2018-05-06T04:08:10.147Z,9.97
2018-05-06T04:10:38.473Z,7.60
2018-05-06T04:13:06.874Z,9.50
2018-05-06T04:15:35.280Z,8.47
2018-05-06T04:18:03.593Z,7.77
2018-05-06T04:20:31.920Z,8.57
2018-05-06T04:23:00.263Z,8.33
2018-05-06T04:25:29.540Z,11.13
2018-05-06T04:27:58.311Z,10.93
2018-05-06T04:30:27.129Z,12.17
2018-05-06T04:32:55.530Z,7.10
2018-05-06T04:35:24.210Z,6.97
2018-05-06T04:37:52.660Z,8.80
2018-05-06T04:40:21.216Z,7.20
2018-05-06T04:42:49.603Z,8.13
2018-05-06T04:45:18.029Z,8.40
2018-05-06T04:47:46.403Z,7.23
2018-05-06T04:50:14.742Z,7.43
2018-05-06T04:52:44.321Z,8.73
2018-05-06T04:55:12.896Z,14.00
2018-05-06T04:57:47.373Z,6.90
2018-05-06T05:00:15.832Z,8.40
2018-05-06T05:02:44.343Z,7.13
2018-05-06T05:05:12.759Z,6.83
2018-05-06T05:07:41.947Z,6.83
2018-05-06T05:10:23.380Z,7.27
2018-05-06T05:12:51.939Z,9.87
2018-05-06T05:15:20.398Z,7.70
2018-05-06T05:17:48.711Z,8.30
2018-05-06T05:20:17.080Z,9.50
2018-05-06T05:22:45.953Z,8.57
2018-05-06T05:25:15.356Z,9.00
2018-05-06T05:27:43.691Z,8.93
2018-05-06T05:30:12.096Z,10.73
2018-05-06T05:32:40.565Z,7.40
2018-05-06T05:35:09.424Z,8.47
2018-05-06T05:37:37.829Z,8.30
2018-05-06T05:40:06.263Z,7.83
2018-05-06T05:42:35.484Z,7.70
2018-05-06T05:45:03.829Z,6.73
2018-05-06T05:47:33.830Z,7.23
2018-05-06T05:50:02.088Z,10.27
2018-05-06T05:52:31.056Z,7.73
2018-05-06T05:54:59.445Z,7.23
2018-05-06T05:57:28.538Z,6.83
2018-05-06T05:59:56.919Z,6.17
2018-05-06T06:02:25.288Z,6.93
2018-05-06T06:04:53.774Z,7.87
2018-05-06T06:07:22.074Z,8.90
2018-05-06T06:09:52.255Z,7.17
2018-05-06T06:12:20.571Z,7.00
2018-05-06T06:14:49.265Z,8.00
2018-05-06T06:17:17.657Z,8.63
2018-05-06T06:19:46.024Z,7.17
2018-05-06T06:22:14.421Z,8.27
2018-05-06T06:24:42.813Z,9.93
2018-05-06T06:27:11.218Z,8.27
2018-05-06T06:29:39.750Z,7.73
2018-05-06T06:32:08.454Z,9.93
2018-05-06T06:34:36.800Z,8.60
2018-05-06T06:37:05.366Z,7.70
2018-05-06T06:39:38.097Z,8.67
2018-05-06T06:42:06.610Z,7.53
2018-05-06T06:44:34.946Z,9.23
2018-05-06T06:47:03.319Z,8.77
2018-05-06T06:49:31.782Z,9.00
2018-05-06T06:52:00.596Z,13.90
2018-05-06T06:54:29.073Z,8.00
2018-05-06T06:56:57.433Z,8.37
2018-05-06T06:59:25.802Z,8.27
2018-05-06T07:01:54.265Z,7.47
2018-05-06T07:04:22.626Z,7.90
2018-05-06T07:06:51.216Z,7.93
2018-05-06T07:09:19.797Z,8.10
2018-05-06T07:11:48.308Z,10.00
2018-05-06T07:14:16.746Z,7.27
2018-05-06T07:16:45.208Z,11.47
2018-05-06T07:19:13.661Z,9.63
2018-05-06T07:21:42.884Z,8.57
2018-05-06T07:24:11.524Z,12.73
2018-05-06T07:26:40.269Z,11.10
2018-05-06T07:29:08.626Z,8.20
2018-05-06T07:31:37.471Z,9.50
2018-05-06T07:34:05.894Z,9.07
2018-05-06T07:36:36.679Z,8.63
2018-05-06T07:39:06.592Z,6.97
2018-05-06T07:41:34.986Z,8.23
2018-05-06T07:44:03.350Z,7.87
2018-05-06T07:46:31.709Z,9.13
2018-05-06T07:49:00.162Z,7.28
2018-05-06T07:51:28.458Z,8.07
2018-05-06T07:53:57.209Z,8.37
2018-05-06T07:56:25.677Z,6.78
2018-05-06T07:58:54.083Z,7.87
2018-05-06T08:01:22.702Z,11.12
2018-05-06T08:03:51.756Z,8.20
2018-05-06T08:06:20.152Z,6.80
2018-05-06T08:08:52.137Z,7.12
2018-05-06T08:11:20.632Z,12.07
2018-05-06T08:13:49.356Z,5.05
2018-05-06T08:16:17.787Z,6.27
2018-05-06T08:18:46.099Z,6.33
2018-05-06T08:21:15.392Z,3.37
2018-05-06T08:23:43.756Z,3.00
2018-05-06T08:26:12.099Z,3.67
2018-05-06T08:28:40.497Z,5.33
2018-05-06T08:31:08.827Z,6.10
2018-05-06T08:33:37.198Z,5.57
2018-05-06T08:36:05.518Z,6.50
2018-05-06T08:38:33.890Z,7.13
2018-05-06T08:41:02.554Z,4.63
2018-05-06T08:43:31.968Z,4.27
2018-05-06T08:46:00.388Z,3.53
2018-05-06T08:48:28.769Z,3.67
2018-05-06T08:50:57.098Z,6.43
2018-05-06T08:53:25.455Z,7.07
2018-05-06T08:55:54.038Z,7.53
2018-05-06T08:58:22.408Z,5.27
2018-05-06T09:00:50.789Z,4.43
2018-05-06T09:03:19.137Z,4.80
2018-05-06T09:05:47.636Z,5.60
2018-05-06T09:08:15.982Z,17.20
2018-05-06T09:10:44.325Z,27.13
2018-05-06T09:13:12.657Z,19.20
2018-05-06T09:15:41.005Z,3.93
2018-05-06T09:18:09.322Z,3.27
2018-05-06T09:20:37.630Z,5.63
2018-05-06T09:23:05.973Z,4.73
2018-05-06T09:25:34.332Z,4.50
2018-05-06T09:28:02.593Z,6.77
2018-05-06T09:30:30.951Z,25.33
2018-05-06T09:32:59.274Z,22.50
2018-05-06T09:35:27.616Z,13.70
2018-05-06T09:37:56.113Z,7.50
2018-05-06T09:40:24.638Z,5.77
2018-05-06T09:42:55.414Z,3.27
2018-05-06T09:45:24.216Z,6.20
2018-05-06T09:47:52.583Z,4.13
2018-05-06T09:50:21.789Z,5.07
2018-05-06T09:52:50.095Z,4.00
2018-05-06T09:55:18.446Z,3.53
2018-05-06T09:57:46.762Z,9.27
2018-05-06T10:00:15.093Z,30.43
2018-05-06T10:02:43.449Z,6.00
2018-05-06T10:05:11.770Z,4.80
2018-05-06T10:07:40.085Z,4.77
2018-05-06T10:10:08.653Z,4.67
2018-05-06T10:12:36.964Z,5.43
2018-05-06T10:15:05.286Z,5.63
2018-05-06T10:17:33.784Z,5.40
2018-05-06T10:20:02.116Z,4.80
2018-05-06T10:22:30.426Z,3.80
2018-05-06T10:24:58.750Z,4.43
2018-05-06T10:27:27.103Z,3.53
2018-05-06T10:29:58.846Z,4.73
2018-05-06T10:32:27.707Z,5.67
2018-05-06T10:34:56.027Z,3.43
2018-05-06T10:37:24.628Z,5.00
2018-05-06T10:39:52.971Z,4.60
2018-05-06T10:42:21.381Z,4.47
2018-05-06T10:44:49.676Z,5.00
2018-05-06T10:47:18.073Z,4.53
2018-05-06T10:49:46.415Z,3.33
2018-05-06T10:52:14.745Z,4.63
2018-05-06T10:54:43.135Z,3.43
2018-05-06T10:57:12.656Z,5.07
2018-05-06T10:59:40.982Z,5.00
2018-05-06T11:02:09.335Z,2.23
2018-05-06T11:04:38.353Z,2.40
2018-05-06T11:07:06.786Z,2.90
2018-05-06T11:09:35.090Z,2.43
2018-05-06T11:12:03.515Z,3.13
2018-05-06T11:14:31.815Z,5.07
2018-05-06T11:17:00.190Z,3.87
2018-05-06T11:19:28.513Z,5.03
2018-05-06T11:21:56.860Z,3.07
2018-05-06T11:24:25.183Z,5.62
2018-05-06T11:26:53.625Z,10.13
2018-05-06T11:29:22.044Z,2.47
2018-05-06T11:31:50.420Z,2.12
2018-05-06T11:34:18.944Z,2.12
2018-05-06T11:36:47.251Z,2.67
2018-05-06T11:39:15.589Z,11.15
2018-05-06T11:41:44.248Z,4.12
2018-05-06T11:44:12.590Z,3.72
2018-05-06T11:46:40.945Z,3.08
2018-05-06T11:49:09.270Z,11.07
2018-05-06T11:51:37.707Z,19.55
2018-05-06T11:54:06.032Z,4.37
2018-05-06T11:56:34.386Z,3.65
2018-05-06T11:59:02.779Z,4.32
2018-05-06T12:01:31.115Z,9.23
2018-05-06T12:03:59.556Z,4.30
2018-05-06T12:06:27.907Z,3.15
2018-05-06T12:08:56.416Z,4.97
2018-05-06T12:11:24.727Z,3.23
2018-05-06T12:13:53.253Z,4.43
2018-05-06T12:16:21.593Z,3.70
2018-05-06T12:18:49.907Z,3.07
2018-05-06T12:21:18.540Z,4.47
2018-05-06T12:23:46.910Z,3.20
2018-05-06T12:26:15.289Z,4.43
2018-05-06T12:28:43.631Z,3.23
2018-05-06T12:31:11.950Z,4.00
2018-05-06T12:33:40.330Z,2.63
2018-05-06T12:36:08.685Z,4.73
2018-05-06T12:38:37.087Z,2.17
2018-05-06T12:41:05.491Z,12.90
2018-05-06T12:43:33.877Z,3.80
2018-05-06T12:46:02.202Z,4.00
2018-05-06T12:48:30.557Z,2.93
2018-05-06T12:50:58.864Z,3.47
2018-05-06T12:53:27.206Z,3.67
2018-05-06T12:55:55.541Z,11.10
2018-05-06T12:58:23.867Z,3.90
2018-05-06T13:00:52.272Z,3.30
2018-05-06T13:03:20.623Z,5.83
2018-05-06T13:05:48.984Z,7.87
2018-05-06T13:08:17.322Z,2.93
2018-05-06T13:10:45.641Z,12.23
2018-05-06T13:13:14.008Z,3.43
2018-05-06T13:15:42.326Z,3.37
2018-05-06T13:18:10.649Z,3.83
2018-05-06T13:20:38.966Z,5.03
2018-05-06T13:23:07.295Z,4.67
2018-05-06T13:25:35.639Z,2.40
2018-05-06T13:28:03.967Z,2.77
2018-05-06T13:30:32.330Z,2.80
2018-05-06T13:33:01.410Z,2.40
2018-05-06T13:35:29.788Z,2.43
2018-05-06T13:37:58.112Z,2.70
2018-05-06T13:40:26.423Z,2.20
2018-05-06T13:42:54.852Z,2.47
2018-05-06T13:45:23.166Z,3.20
2018-05-06T13:47:51.490Z,4.37
2018-05-06T13:50:19.817Z,3.87
2018-05-06T13:52:48.145Z,10.10
2018-05-06T13:55:16.502Z,4.13
2018-05-06T13:57:44.849Z,2.33
2018-05-06T14:00:13.178Z,21.83
2018-05-06T14:02:41.606Z,7.37
2018-05-06T14:05:09.931Z,3.13
2018-05-06T14:07:38.253Z,10.23
2018-05-06T14:10:06.586Z,2.67
2018-05-06T14:12:34.935Z,4.10
2018-05-06T14:15:03.290Z,5.93
2018-05-06T14:17:31.595Z,3.60
2018-05-06T14:19:59.935Z,5.90
2018-05-06T14:22:28.314Z,7.67
2018-05-06T14:24:56.652Z,3.27
2018-05-06T14:27:24.971Z,2.60
2018-05-06T14:29:53.409Z,2.97
2018-05-06T14:32:21.838Z,6.93
2018-05-06T14:34:50.160Z,4.60
2018-05-06T14:37:18.508Z,4.70
2018-05-06T14:39:46.828Z,6.33
2018-05-06T14:42:15.175Z,1.73
2018-05-06T14:44:43.524Z,7.57
2018-05-06T14:47:23.780Z,2.43
2018-05-06T14:49:52.110Z,2.37
2018-05-06T14:52:20.535Z,4.30
2018-05-06T14:54:48.887Z,2.90
2018-05-06T14:57:17.204Z,3.50
2018-05-06T14:59:45.525Z,5.70
2018-05-06T15:02:13.831Z,3.20
2018-05-06T15:04:42.143Z,2.40
2018-05-06T15:07:10.460Z,3.67
2018-05-06T15:09:38.853Z,2.80
2018-05-06T15:12:07.180Z,2.57
2018-05-06T15:14:35.489Z,2.57
2018-05-06T15:17:03.814Z,3.20
2018-05-06T15:19:32.133Z,3.17
2018-05-06T15:22:00.544Z,1.83
2018-05-06T15:24:28.862Z,2.00
2018-05-06T15:26:57.201Z,4.20
2018-05-06T15:29:25.581Z,2.20
2018-05-06T15:31:53.900Z,2.00
2018-05-06T15:34:22.272Z,2.90
2018-05-06T15:36:50.688Z,2.00
2018-05-06T15:39:19.008Z,1.97
2018-05-06T15:41:47.403Z,4.37
2018-05-06T15:44:15.709Z,2.93
2018-05-06T15:46:44.488Z,2.23
2018-05-06T15:49:12.816Z,4.07
2018-05-06T15:51:41.271Z,3.07
2018-05-06T15:54:09.599Z,2.10
2018-05-06T15:56:37.966Z,2.53
2018-05-06T15:59:06.411Z,4.40
2018-05-06T16:01:34.754Z,3.70
2018-05-06T16:04:14.937Z,2.00
2018-05-06T16:06:43.249Z,1.93
2018-05-06T16:09:11.599Z,4.20
2018-05-06T16:11:39.915Z,2.50
2018-05-06T16:14:08.281Z,7.90
2018-05-06T16:16:36.606Z,3.33
2018-05-06T16:19:04.989Z,1.97
2018-05-06T16:21:33.305Z,1.80
2018-05-06T16:24:01.685Z,1.73
2018-05-06T16:26:30.035Z,1.73
2018-05-06T16:28:58.378Z,2.67
2018-05-06T16:31:26.680Z,1.77
2018-05-06T16:33:55.062Z,2.33
2018-05-06T16:36:23.375Z,2.13
2018-05-06T16:38:51.724Z,4.70
2018-05-06T16:41:20.037Z,2.70
2018-05-06T16:43:48.384Z,1.90
2018-05-06T16:46:16.805Z,2.20
2018-05-06T16:48:45.121Z,3.83
2018-05-06T16:51:13.644Z,4.50
2018-05-06T16:53:41.999Z,3.17
2018-05-06T16:56:10.424Z,2.10
2018-05-06T16:58:38.822Z,1.63
2018-05-06T17:01:07.164Z,1.67
2018-05-06T17:03:35.484Z,2.57
2018-05-06T17:06:03.813Z,1.70
2018-05-06T17:08:32.211Z,2.43
2018-05-06T17:11:00.563Z,2.83
2018-05-06T17:13:28.891Z,2.43
2018-05-06T17:15:57.224Z,1.97
2018-05-06T17:18:25.625Z,5.33
2018-05-06T17:20:53.945Z,8.63
2018-05-06T17:23:22.275Z,1.70
2018-05-06T17:25:50.671Z,3.93
2018-05-06T17:28:18.992Z,4.10
2018-05-06T17:30:47.314Z,1.97
2018-05-06T17:33:15.653Z,1.50
2018-05-06T17:35:44.054Z,2.90
2018-05-06T17:38:12.392Z,2.77
2018-05-06T17:40:40.711Z,5.03
2018-05-06T17:43:09.024Z,1.63
2018-05-06T17:45:37.365Z,2.53
2018-05-06T17:48:05.723Z,2.90
2018-05-06T17:50:34.033Z,3.90
2018-05-06T17:53:02.354Z,3.77
2018-05-06T17:55:30.664Z,5.90
2018-05-06T17:57:59.021Z,3.67
2018-05-06T18:00:27.367Z,4.23
2018-05-06T18:02:55.769Z,1.70
2018-05-06T18:05:24.139Z,2.37
2018-05-06T18:07:52.490Z,4.17
2018-05-06T18:10:21.362Z,2.47
2018-05-06T18:12:49.776Z,2.30
2018-05-06T18:15:18.090Z,6.07
2018-05-06T18:17:46.510Z,2.33
2018-05-06T18:20:15.871Z,3.63
2018-05-06T18:22:44.271Z,2.27
2018-05-06T18:25:12.522Z,3.60
2018-05-06T18:27:40.856Z,2.43
2018-05-06T18:30:09.162Z,1.90
2018-05-06T18:32:37.490Z,1.80
2018-05-06T18:35:05.872Z,2.07
2018-05-06T18:37:34.241Z,2.57
2018-05-06T18:40:02.554Z,2.80
2018-05-06T18:42:30.953Z,2.33
2018-05-06T18:44:59.304Z,2.20
2018-05-06T18:47:27.641Z,2.33
2018-05-06T18:49:56.049Z,3.33
2018-05-06T18:52:24.380Z,2.57
2018-05-06T18:54:52.725Z,2.70
2018-05-06T18:57:21.093Z,6.60
2018-05-06T18:59:49.389Z,4.13
2018-05-06T19:02:17.750Z,3.40
2018-05-06T19:04:46.157Z,4.00
2018-05-06T19:07:14.453Z,5.13
2018-05-06T19:09:42.771Z,3.27
2018-05-06T19:12:11.603Z,7.97
2018-05-06T19:14:39.899Z,4.07
2018-05-06T19:17:08.359Z,6.03
2018-05-06T19:19:36.640Z,4.57
2018-05-06T19:22:04.970Z,5.50
2018-05-06T19:24:33.285Z,4.40
2018-05-06T19:27:01.718Z,7.00
2018-05-06T19:29:30.106Z,4.97
2018-05-06T19:31:59.068Z,5.70
2018-05-06T19:34:27.705Z,3.97
2018-05-06T19:36:56.131Z,3.93
2018-05-06T19:39:24.423Z,3.70
2018-05-06T19:41:52.874Z,4.97
2018-05-06T19:44:21.281Z,4.57
2018-05-06T19:46:49.599Z,3.93
2018-05-06T19:49:17.929Z,4.60
2018-05-06T19:51:46.316Z,3.67
2018-05-06T19:54:14.656Z,3.60
2018-05-06T19:56:43.057Z,4.60
2018-05-06T19:59:11.378Z,3.57
2018-05-06T20:01:39.706Z,3.17
2018-05-06T20:04:08.048Z,3.47
2018-05-06T20:06:36.980Z,7.33
2018-05-06T20:09:06.121Z,3.90
2018-05-06T20:11:34.514Z,3.17
2018-05-06T20:14:02.844Z,3.63
2018-05-06T20:16:31.333Z,3.40
2018-05-06T20:18:59.696Z,3.27
2018-05-06T20:21:28.115Z,4.67
2018-05-06T20:23:56.497Z,6.77
2018-05-06T20:26:24.848Z,3.80
2018-05-06T20:28:53.227Z,5.10
2018-05-06T20:31:21.901Z,5.30
2018-05-06T20:33:50.179Z,6.63
2018-05-06T20:36:18.500Z,5.17
2018-05-06T20:38:48.236Z,6.83
2018-05-06T20:41:16.838Z,4.00
2018-05-06T20:43:45.143Z,3.77
2018-05-06T20:46:13.475Z,3.70
2018-05-06T20:48:41.803Z,4.47
2018-05-06T20:51:10.127Z,5.00
2018-05-06T20:53:38.505Z,4.63
2018-05-06T20:56:06.857Z,6.53
2018-05-06T20:58:35.183Z,6.17
2018-05-06T21:01:03.537Z,4.07
2018-05-06T21:03:31.860Z,5.20
2018-05-06T21:06:00.271Z,3.00
2018-05-06T21:08:28.858Z,6.40
2018-05-06T21:10:57.295Z,5.03
2018-05-06T21:13:25.659Z,5.63
2018-05-06T21:15:54.697Z,3.90
2018-05-06T21:18:23.020Z,4.20
2018-05-06T21:20:51.337Z,2.53
2018-05-06T21:23:19.662Z,4.70
2018-05-06T21:25:47.971Z,5.17
2018-05-06T21:28:16.301Z,3.60
2018-05-06T21:30:44.629Z,2.67
2018-05-06T21:33:13.276Z,4.47
2018-05-06T21:35:42.164Z,4.10
2018-05-06T21:38:10.516Z,8.57
2018-05-06T21:40:38.826Z,3.20
2018-05-06T21:43:07.182Z,3.13
2018-05-06T21:45:35.576Z,4.90
2018-05-06T21:48:04.067Z,7.00
2018-05-06T21:50:32.405Z,5.17
2018-05-06T21:53:00.764Z,3.60
2018-05-06T21:55:29.137Z,3.40
2018-05-06T21:57:57.446Z,4.13
2018-05-06T22:00:25.881Z,4.57
2018-05-06T22:02:54.234Z,8.90
2018-05-06T22:05:22.566Z,5.77
2018-05-06T22:07:51.000Z,5.27
2018-05-06T22:10:19.366Z,4.50
2018-05-06T22:12:47.701Z,3.23
2018-05-06T22:15:16.044Z,4.47
2018-05-06T22:17:44.487Z,5.20
2018-05-06T22:20:12.846Z,4.70
2018-05-06T22:22:41.162Z,6.10
2018-05-06T22:25:09.497Z,3.40
2018-05-06T22:27:37.843Z,5.47
2018-05-06T22:30:07.743Z,5.27
2018-05-06T22:32:36.046Z,4.77
2018-05-06T22:35:04.515Z,5.30
2018-05-06T22:37:32.813Z,4.13
2018-05-06T22:40:01.238Z,7.30
2018-05-06T22:42:29.625Z,4.53
2018-05-06T22:44:57.950Z,4.47
2018-05-06T22:47:26.304Z,5.13
2018-05-06T22:49:54.651Z,3.57
2018-05-06T22:52:22.982Z,6.40
2018-05-06T22:54:51.406Z,4.60
2018-05-06T22:57:19.752Z,7.03
2018-05-06T22:59:48.099Z,4.67
2018-05-06T23:02:16.480Z,7.63
2018-05-06T23:04:44.800Z,6.97
2018-05-06T23:07:13.164Z,6.27
2018-05-06T23:09:41.482Z,3.87
2018-05-06T23:12:09.830Z,6.40
2018-05-06T23:14:38.238Z,9.30
2018-05-06T23:17:06.565Z,5.03
2018-05-06T23:19:34.930Z,5.47
2018-05-06T23:22:03.358Z,5.23
2018-05-06T23:24:31.661Z,5.43
2018-05-06T23:26:59.991Z,3.77
2018-05-06T23:29:28.380Z,4.37
2018-05-06T23:31:56.782Z,5.57
2018-05-06T23:34:25.169Z,4.70
2018-05-06T23:36:53.481Z,6.07
2018-05-06T23:39:21.800Z,4.23
2018-05-06T23:41:50.115Z,8.20
2018-05-06T23:44:18.435Z,5.60
2018-05-06T23:46:46.776Z,7.23
2018-05-06T23:49:15.196Z,4.13
2018-05-06T23:51:43.519Z,4.03
2018-05-06T23:54:11.841Z,4.17
2018-05-06T23:56:40.189Z,4.27
2018-05-06T23:59:08.585Z,4.20
